Time;durP1;ratioP1;P1;durP2;ratioP2;P2;SDS_P1;SDS_P2;PMS_P1;PMS_P2;Temp;Humidity;BMP_temperature;BMP_pressure;BME280_temperature;BME280_humidity;BME280_pressure;Samples;Min_cycle;Max_cycle;Signal;HPM_P1;HPM_P2
2023/10/15 00:00:19;;;;;;;3.70;3.50;;;8.90;99.90;;;;;;5063940;28;20041;-92
2023/10/15 00:02:49;;;;;;;3.55;3.35;;;8.90;99.90;;;;;;5056567;28;20041;-91
2023/10/15 00:05:20;;;;;;;3.35;3.15;;;9.00;99.90;;;;;;5035720;28;20044;-91
2023/10/15 00:07:47;;;;;;;3.70;3.50;;;9.00;99.90;;;;;;5034270;28;20040;-90
2023/10/15 00:10:20;;;;;;;3.97;3.75;;;9.00;99.90;;;;;;5037295;28;20032;-89
2023/10/15 00:12:49;;;;;;;4.25;3.97;;;9.00;99.90;;;;;;5015398;28;20133;-90
2023/10/15 00:15:19;;;;;;;4.40;4.10;;;9.00;99.90;;;;;;5060136;28;20118;-88
2023/10/15 00:17:46;;;;;;;3.95;3.70;;;9.00;99.90;;;;;;5052222;28;20045;-92
2023/10/15 00:20:19;;;;;;;4.32;4.03;;;9.10;99.90;;;;;;5023958;28;20041;-91
2023/10/15 00:22:46;;;;;;;4.88;4.57;;;9.00;99.90;;;;;;5018232;28;20052;-90
2023/10/15 00:25:18;;;;;;;4.32;4.03;;;9.00;99.90;;;;;;5051425;28;20037;-91
2023/10/15 00:27:52;;;;;;;4.80;4.50;;;8.90;99.90;;;;;;5019767;28;20056;-89
2023/10/15 00:30:19;;;;;;;5.00;4.68;;;8.90;99.90;;;;;;5045106;28;20136;-90
2023/10/15 00:32:46;;;;;;;5.03;4.70;;;8.80;99.90;;;;;;5050351;28;20494;-88
2023/10/15 00:35:13;;;;;;;5.57;5.20;;;8.70;99.90;;;;;;5015631;28;20041;-89
2023/10/15 00:37:51;;;;;;;4.75;4.45;;;8.60;99.90;;;;;;5034698;28;20045;-90
2023/10/15 00:40:20;;;;;;;5.38;5.03;;;8.60;99.90;;;;;;5062877;28;20060;-90
2023/10/15 00:42:46;;;;;;;5.43;5.05;;;8.60;99.90;;;;;;5049544;28;20068;-91
2023/10/15 00:45:17;;;;;;;4.72;4.43;;;8.60;99.90;;;;;;5035111;28;20064;-90
2023/10/15 00:48:07;;;;;;;4.63;4.32;;;8.70;99.90;;;;;;5062911;28;20043;-94
2023/10/15 00:50:41;;;;;;;4.25;3.95;;;8.70;99.90;;;;;;5040075;28;20098;-94
2023/10/15 00:53:21;;;;;;;4.85;4.55;;;8.80;99.90;;;;;;5020478;28;21294;-94
2023/10/15 00:55:52;;;;;;;4.97;4.68;;;8.80;99.90;;;;;;5026188;28;20045;-93
2023/10/15 00:58:27;;;;;;;4.97;4.68;;;8.70;99.90;;;;;;5021279;28;20079;-93
2023/10/15 01:00:53;;;;;;;4.80;4.50;;;8.70;99.90;;;;;;5026070;28;20776;-91
2023/10/15 01:03:31;;;;;;;4.75;4.45;;;8.70;99.90;;;;;;5022067;28;20037;-93
2023/10/15 01:06:03;;;;;;;4.88;4.57;;;8.70;99.90;;;;;;5025067;28;20521;-92
2023/10/15 01:08:34;;;;;;;5.13;4.80;;;8.70;99.90;;;;;;5023393;28;20052;-92
2023/10/15 01:11:18;;;;;;;4.70;4.40;;;8.60;99.90;;;;;;5020850;28;20049;-93
2023/10/15 01:13:44;;;;;;;5.22;4.88;;;8.60;99.90;;;;;;5025906;28;20094;-94
2023/10/15 01:16:17;;;;;;;5.15;4.82;;;8.60;99.90;;;;;;5026285;28;20052;-90
2023/10/15 01:18:45;;;;;;;5.57;5.20;;;8.50;99.90;;;;;;5034276;28;20075;-88
2023/10/15 01:21:16;;;;;;;5.18;4.85;;;8.50;99.90;;;;;;5023722;28;20128;-93
2023/10/15 01:26:23;;;;;;;5.13;4.80;;;8.60;99.90;;;;;;5038269;28;20036;-93
2023/10/15 01:28:52;;;;;;;4.90;4.60;;;8.50;99.90;;;;;;5025192;28;20098;-91
2023/10/15 01:31:18;;;;;;;4.93;4.63;;;8.50;99.90;;;;;;5022780;28;20072;-91
2023/10/15 01:33:47;;;;;;;4.85;4.55;;;8.50;99.90;;;;;;5033154;28;20478;-89
2023/10/15 01:36:27;;;;;;;4.90;4.60;;;8.60;99.90;;;;;;5015503;28;20044;-91
2023/10/15 01:38:55;;;;;;;4.75;4.45;;;8.50;99.90;;;;;;5018998;28;20579;-90
2023/10/15 01:41:25;;;;;;;4.35;4.05;;;8.60;99.90;;;;;;5060840;28;20049;-91
2023/10/15 01:43:53;;;;;;;4.55;4.25;;;8.60;99.90;;;;;;5020895;28;20076;-87
2023/10/15 01:49:18;;;;;;;4.90;4.60;;;8.60;99.90;;;;;;5019921;28;20132;-92
2023/10/15 01:51:45;;;;;;;4.50;4.20;;;8.70;99.90;;;;;;5027787;28;20045;-92
2023/10/15 01:54:12;;;;;;;4.20;3.92;;;8.60;99.90;;;;;;5024560;28;20196;-91
2023/10/15 01:56:38;;;;;;;4.50;4.20;;;8.70;99.90;;;;;;5022670;28;20041;-93
2023/10/15 01:59:08;;;;;;;4.82;4.53;;;8.60;99.90;;;;;;5049120;28;20049;-92
2023/10/15 02:01:40;;;;;;;5.35;5.00;;;8.70;99.90;;;;;;5055904;28;20045;-91
2023/10/15 02:04:25;;;;;;;5.28;4.93;;;8.60;99.90;;;;;;5024295;28;20544;-91
2023/10/15 02:06:51;;;;;;;5.47;5.13;;;8.60;99.90;;;;;;5040894;28;20110;-92
2023/10/15 02:09:21;;;;;;;4.82;4.53;;;8.60;99.90;;;;;;5034435;28;20072;-91
2023/10/15 02:11:48;;;;;;;5.05;4.75;;;8.60;99.90;;;;;;5019373;28;20053;-92
2023/10/15 02:14:23;;;;;;;5.10;4.78;;;8.70;99.90;;;;;;5053625;28;20041;-96
2023/10/15 02:16:53;;;;;;;5.05;4.75;;;8.60;99.90;;;;;;5025906;28;20040;-94
2023/10/15 02:19:52;;;;;;;;;;;;;;;;;;;;;
2023/10/15 02:22:38;;;;;;;6.10;5.70;;;8.50;99.90;;;;;;5040365;28;20052;-94
2023/10/15 02:25:04;;;;;;;6.75;6.32;;;8.40;99.90;;;;;;5049061;28;20057;-94
2023/10/15 02:27:38;;;;;;;6.80;6.38;;;8.40;99.90;;;;;;5023945;28;20047;-94
2023/10/15 02:30:08;;;;;;;7.40;6.90;;;8.40;99.90;;;;;;5021145;28;20474;-96
2023/10/15 02:32:34;;;;;;;7.85;7.35;;;8.40;99.90;;;;;;5052676;28;20072;-95
2023/10/15 02:35:05;;;;;;;6.38;5.97;;;8.30;99.90;;;;;;5020877;28;20094;-96
2023/10/15 02:37:31;;;;;;;6.70;6.30;;;8.10;99.90;;;;;;5022587;28;20045;-93
2023/10/15 02:40:00;;;;;;;6.20;5.80;;;8.30;99.90;;;;;;5056787;28;20068;-91
2023/10/15 02:42:34;;;;;;;7.20;6.70;;;8.20;99.90;;;;;;5025039;28;20053;-93
2023/10/15 02:45:01;;;;;;;7.85;7.35;;;8.10;99.90;;;;;;5021076;28;20072;-92
2023/10/15 02:47:41;;;;;;;6.60;6.20;;;8.00;99.90;;;;;;5036663;28;20081;-92
2023/10/15 02:50:09;;;;;;;8.90;8.30;;;8.00;99.90;;;;;;5052667;28;20056;-92
2023/10/15 02:52:35;;;;;;;8.52;8.02;;;8.00;99.90;;;;;;5057168;28;20504;-94
2023/10/15 02:55:09;;;;;;;8.93;8.38;;;7.80;99.90;;;;;;5021698;28;20312;-91
2023/10/15 02:57:44;;;;;;;6.93;6.45;;;7.80;99.90;;;;;;5037034;28;20081;-93
2023/10/15 03:00:33;;;;;;;7.95;7.45;;;7.80;99.90;;;;;;5016824;28;20040;-93
2023/10/15 03:03:07;;;;;;;10.18;9.57;;;7.80;99.90;;;;;;5050672;28;20090;-91
2023/10/15 03:05:39;;;;;;;9.30;8.73;;;7.70;99.90;;;;;;5023177;28;20106;-92
2023/10/15 03:08:05;;;;;;;9.60;9.00;;;7.70;99.90;;;;;;5046666;28;20040;-91
2023/10/15 03:10:45;;;;;;;8.85;8.30;;;7.80;99.90;;;;;;5023009;28;20041;-89
2023/10/15 03:13:14;;;;;;;9.40;8.80;;;7.60;99.90;;;;;;5048640;28;20106;-92
2023/10/15 03:15:52;;;;;;;9.02;8.45;;;7.70;99.90;;;;;;5039829;28;20112;-95
2023/10/15 03:18:28;;;;;;;7.75;7.25;;;7.70;99.90;;;;;;5024131;28;20045;-90
2023/10/15 03:21:09;;;;;;;8.25;7.75;;;7.60;99.90;;;;;;5032675;28;20089;-91
2023/10/15 03:23:36;;;;;;;7.70;7.20;;;7.60;99.90;;;;;;5019112;28;20041;-94
2023/10/15 03:26:02;;;;;;;7.78;7.28;;;7.70;99.90;;;;;;5019252;28;20059;-92
2023/10/15 03:28:28;;;;;;;9.05;8.50;;;7.60;99.90;;;;;;5021990;28;20052;-91
2023/10/15 03:30:57;;;;;;;8.70;8.18;;;7.60;99.90;;;;;;5017153;28;20049;-90
2023/10/15 03:33:23;;;;;;;8.63;8.10;;;7.70;99.90;;;;;;5019399;28;20045;-93
2023/10/15 03:35:55;;;;;;;8.80;8.25;;;7.60;99.90;;;;;;5022171;28;20038;-92
2023/10/15 03:38:32;;;;;;;8.40;7.90;;;7.50;99.90;;;;;;5035392;28;20376;-93
2023/10/15 03:41:11;;;;;;;8.73;8.20;;;7.40;99.90;;;;;;5030224;28;20127;-93
2023/10/15 03:43:37;;;;;;;8.05;7.55;;;7.50;99.90;;;;;;5053832;28;20068;-94
2023/10/15 03:46:19;;;;;;;8.65;8.10;;;7.30;99.90;;;;;;5023053;28;20625;-93
2023/10/15 03:48:49;;;;;;;8.88;8.30;;;7.30;99.90;;;;;;5021939;28;20554;-94
2023/10/15 03:51:16;;;;;;;8.43;7.90;;;7.40;99.90;;;;;;5037364;28;20041;-94
2023/10/15 03:53:49;;;;;;;8.57;8.05;;;7.30;99.90;;;;;;5054417;28;20047;-95
2023/10/15 03:56:19;;;;;;;7.63;7.13;;;7.50;99.90;;;;;;5024737;28;20044;-94
2023/10/15 03:58:51;;;;;;;7.88;7.38;;;7.30;99.90;;;;;;5021756;28;20072;-93
2023/10/15 04:01:17;;;;;;;7.13;6.65;;;7.50;99.90;;;;;;5020554;28;20550;-95
2023/10/15 04:03:49;;;;;;;7.35;6.88;;;7.40;99.90;;;;;;5038975;28;20127;-94
2023/10/15 04:06:19;;;;;;;7.95;7.45;;;7.20;99.90;;;;;;5056867;28;20049;-94
2023/10/15 04:11:42;;;;;;;7.40;6.90;;;7.10;99.90;;;;;;5044802;28;20064;-93
2023/10/15 04:14:13;;;;;;;7.47;6.97;;;7.20;99.90;;;;;;5061659;28;20055;-92
2023/10/15 04:16:41;;;;;;;7.32;6.85;;;7.10;99.90;;;;;;5023887;28;20040;-91
2023/10/15 04:19:11;;;;;;;8.00;7.50;;;7.10;99.90;;;;;;5041443;28;20056;-93
2023/10/15 04:21:40;;;;;;;7.22;6.72;;;7.10;99.90;;;;;;5023077;28;20122;-92
2023/10/15 04:24:07;;;;;;;6.60;6.20;;;7.00;99.90;;;;;;5022976;28;20048;-91
2023/10/15 04:26:35;;;;;;;6.30;5.90;;;7.30;99.90;;;;;;5036531;28;20064;-90
2023/10/15 04:29:16;;;;;;;5.32;5.03;;;7.10;99.90;;;;;;5060738;28;20052;-90
2023/10/15 04:32:10;;;;;;;5.30;5.00;;;7.30;99.90;;;;;;5025007;28;20041;-88
2023/10/15 04:34:32;;;;;;;5.15;4.85;;;7.10;99.90;;;;;;5034483;28;20585;-90
2023/10/15 04:37:10;;;;;;;4.78;4.47;;;7.30;99.90;;;;;;5056571;28;20044;-91
2023/10/15 04:39:47;;;;;;;4.97;4.68;;;7.10;99.90;;;;;;5045174;28;20033;-92
2023/10/15 04:42:20;;;;;;;4.60;4.30;;;7.20;99.90;;;;;;5022293;28;20475;-92
2023/10/15 04:44:46;;;;;;;5.00;4.70;;;7.10;99.90;;;;;;5055245;28;20044;-92
2023/10/15 04:47:17;;;;;;;5.45;5.15;;;7.20;99.90;;;;;;5042868;28;20094;-92
2023/10/15 04:49:47;;;;;;;5.95;5.55;;;7.20;99.90;;;;;;5030457;28;20087;-92
2023/10/15 04:52:15;;;;;;;5.05;4.75;;;7.00;99.90;;;;;;5023390;28;20052;-91
2023/10/15 04:54:41;;;;;;;4.75;4.45;;;7.10;99.90;;;;;;5023684;28;20048;-91
2023/10/15 04:57:09;;;;;;;4.63;4.32;;;7.20;99.90;;;;;;5056570;28;20123;-93
2023/10/15 04:59:36;;;;;;;5.47;5.18;;;7.10;99.90;;;;;;5021687;28;20127;-93
2023/10/15 05:02:02;;;;;;;4.57;4.28;;;7.20;99.90;;;;;;5026032;28;20056;-92
2023/10/15 05:04:28;;;;;;;4.55;4.25;;;7.10;99.90;;;;;;5043486;28;20633;-94
2023/10/15 05:06:55;;;;;;;4.78;4.47;;;7.20;99.90;;;;;;5021996;28;20047;-92
2023/10/15 05:09:21;;;;;;;5.22;4.90;;;6.90;99.90;;;;;;5024009;28;20051;-94
2023/10/15 05:11:53;;;;;;;5.47;5.10;;;7.10;99.90;;;;;;5023628;28;20048;-92
2023/10/15 05:14:19;;;;;;;5.43;5.05;;;7.00;99.90;;;;;;5030157;28;20040;-91
2023/10/15 05:16:48;;;;;;;6.95;6.47;;;6.90;99.90;;;;;;5045068;28;20137;-92
2023/10/15 05:19:17;;;;;;;5.10;4.80;;;6.80;99.90;;;;;;5007422;28;20478;-89
2023/10/15 05:21:46;;;;;;;4.50;4.20;;;6.90;99.90;;;;;;5025579;28;20075;-91
2023/10/15 05:24:18;;;;;;;4.50;4.20;;;6.90;99.90;;;;;;5029961;28;20040;-89
2023/10/15 05:26:48;;;;;;;4.60;4.30;;;6.90;99.90;;;;;;5019935;28;20038;-90
2023/10/15 05:29:17;;;;;;;4.43;4.13;;;7.30;99.90;;;;;;5026393;28;20052;-92
2023/10/15 05:31:43;;;;;;;4.82;4.53;;;7.30;99.90;;;;;;5040207;28;20064;-92
2023/10/15 05:34:09;;;;;;;5.30;5.00;;;7.30;99.90;;;;;;5019799;28;20048;-92
2023/10/15 05:36:36;;;;;;;5.00;4.70;;;7.40;99.90;;;;;;5023077;28;20044;-92
2023/10/15 05:39:09;;;;;;;4.53;4.22;;;7.30;99.90;;;;;;5027530;28;20046;-93
2023/10/15 05:41:37;;;;;;;4.65;4.35;;;7.30;99.90;;;;;;5024127;28;20068;-93
2023/10/15 05:44:03;;;;;;;4.20;3.90;;;7.60;99.90;;;;;;5019872;28;20055;-93
2023/10/15 05:46:29;;;;;;;4.43;4.13;;;7.60;99.90;;;;;;5020513;28;20044;-92
2023/10/15 05:48:55;;;;;;;4.57;4.28;;;7.60;99.90;;;;;;5022624;28;20069;-92
2023/10/15 05:51:21;;;;;;;5.22;4.90;;;7.50;99.90;;;;;;5029131;28;20086;-93
2023/10/15 05:53:47;;;;;;;6.05;5.65;;;7.70;99.90;;;;;;5026008;28;20688;-92
2023/10/15 05:56:13;;;;;;;5.95;5.55;;;7.70;99.90;;;;;;5021198;28;20067;-93
2023/10/15 05:58:39;;;;;;;5.00;4.70;;;7.70;99.90;;;;;;5036365;28;20478;-92
2023/10/15 06:01:06;;;;;;;4.68;4.38;;;7.80;99.90;;;;;;5024102;28;20060;-92
2023/10/15 06:03:31;;;;;;;4.50;4.20;;;7.70;99.90;;;;;;5021154;28;20124;-93
2023/10/15 06:05:58;;;;;;;4.53;4.22;;;7.90;99.90;;;;;;5043442;28;20131;-91
2023/10/15 06:08:24;;;;;;;4.30;4.00;;;7.80;99.90;;;;;;5022172;28;20512;-92
2023/10/15 06:10:50;;;;;;;4.20;3.90;;;7.80;99.90;;;;;;5023070;28;20041;-91
2023/10/15 06:13:17;;;;;;;4.50;4.20;;;7.90;99.90;;;;;;5055064;28;20056;-93
2023/10/15 06:15:43;;;;;;;4.22;3.92;;;7.80;99.90;;;;;;5055063;28;20146;-95
2023/10/15 06:18:09;;;;;;;4.40;4.10;;;8.00;99.90;;;;;;5021587;28;20049;-94
2023/10/15 06:20:35;;;;;;;4.53;4.22;;;7.90;99.90;;;;;;5051926;28;20076;-93
2023/10/15 06:23:07;;;;;;;4.75;4.45;;;8.00;99.90;;;;;;5023689;28;20076;-95
2023/10/15 06:25:35;;;;;;;4.67;4.37;;;8.00;99.90;;;;;;5021278;28;20119;-92
2023/10/15 06:28:02;;;;;;;4.90;4.60;;;8.10;99.90;;;;;;5048432;28;20557;-95
2023/10/15 06:30:28;;;;;;;5.82;5.43;;;7.90;99.90;;;;;;5036140;28;20167;-93
2023/10/15 06:32:54;;;;;;;6.03;5.63;;;7.90;99.90;;;;;;5035489;28;20071;-94
2023/10/15 06:35:22;;;;;;;6.07;5.68;;;8.00;99.90;;;;;;5023182;28;20057;-92
2023/10/15 06:37:49;;;;;;;5.63;5.25;;;8.10;99.90;;;;;;5020981;28;20055;-92
2023/10/15 06:40:16;;;;;;;5.85;5.45;;;8.00;99.90;;;;;;5020845;28;20060;-93
2023/10/15 06:42:43;;;;;;;6.07;5.68;;;8.20;99.90;;;;;;5023078;28;20081;-90
2023/10/15 06:45:10;;;;;;;6.25;5.85;;;8.20;99.90;;;;;;5021161;28;20094;-91
2023/10/15 06:47:37;;;;;;;6.75;6.35;;;8.20;99.90;;;;;;5039062;28;20191;-92
2023/10/15 06:50:07;;;;;;;6.85;6.45;;;8.20;99.90;;;;;;5046726;28;20041;-87
2023/10/15 06:52:38;;;;;;;7.38;6.90;;;8.40;99.90;;;;;;5046204;28;20048;-88
2023/10/15 06:55:05;;;;;;;7.50;7.00;;;8.40;99.90;;;;;;5017195;28;20048;-92
2023/10/15 06:57:32;;;;;;;9.07;8.50;;;8.40;99.90;;;;;;5017999;28;20125;-90
2023/10/15 06:59:58;;;;;;;8.63;8.07;;;8.30;99.90;;;;;;5039424;28;20040;-88
2023/10/15 07:02:24;;;;;;;8.63;8.10;;;8.20;99.90;;;;;;5031882;28;20572;-93
2023/10/15 07:04:50;;;;;;;7.90;7.40;;;8.20;99.90;;;;;;5021690;28;20076;-93
2023/10/15 07:07:16;;;;;;;8.00;7.50;;;8.10;99.90;;;;;;5023008;28;20170;-90
2023/10/15 07:09:42;;;;;;;7.35;6.85;;;8.10;99.90;;;;;;5034047;28;20061;-88
2023/10/15 07:12:11;;;;;;;6.40;6.00;;;8.10;99.90;;;;;;5031596;28;20053;-93
2023/10/15 07:14:39;;;;;;;8.15;7.65;;;8.10;99.90;;;;;;5061345;28;20506;-90
2023/10/15 07:17:05;;;;;;;7.57;7.07;;;8.00;99.90;;;;;;5020201;28;20705;-92
2023/10/15 07:19:31;;;;;;;7.25;6.80;;;8.10;99.90;;;;;;5018528;28;20041;-93
2023/10/15 07:21:57;;;;;;;7.47;6.97;;;8.00;99.90;;;;;;5053518;28;20123;-93
2023/10/15 07:24:26;;;;;;;6.22;5.82;;;8.10;99.90;;;;;;5020311;28;20051;-96
2023/10/15 07:26:52;;;;;;;6.28;5.88;;;8.20;99.90;;;;;;5058699;28;20040;-91
2023/10/15 07:29:18;;;;;;;6.32;5.93;;;8.30;99.90;;;;;;5019871;28;20052;-92
2023/10/15 07:31:45;;;;;;;6.45;6.05;;;8.30;99.90;;;;;;5015788;28;20052;-93
2023/10/15 07:34:11;;;;;;;7.05;6.60;;;8.40;99.90;;;;;;5024426;28;20044;-92
2023/10/15 07:36:37;;;;;;;6.13;5.72;;;8.30;99.90;;;;;;5024998;28;20102;-89
2023/10/15 07:39:06;;;;;;;7.78;7.28;;;8.40;99.90;;;;;;5053986;28;20052;-92
2023/10/15 07:41:33;;;;;;;5.88;5.47;;;8.30;99.90;;;;;;5023245;28;20048;-91
2023/10/15 07:44:01;;;;;;;7.43;6.93;;;8.30;99.90;;;;;;5044219;28;20037;-91
2023/10/15 07:46:28;;;;;;;6.60;6.20;;;8.40;99.90;;;;;;5023696;28;20090;-91
2023/10/15 07:48:54;;;;;;;6.10;5.70;;;8.40;99.90;;;;;;5044492;28;20478;-92
2023/10/15 07:51:20;;;;;;;5.53;5.22;;;8.50;99.90;;;;;;5027717;28;20049;-91
2023/10/15 07:53:46;;;;;;;5.63;5.22;;;8.70;99.90;;;;;;5031925;28;20041;-93
2023/10/15 07:56:14;;;;;;;6.22;5.82;;;8.90;99.90;;;;;;5041760;28;20130;-92
2023/10/15 07:58:40;;;;;;;7.18;6.70;;;9.00;99.90;;;;;;5045530;28;20051;-94
2023/10/15 08:01:06;;;;;;;7.57;7.10;;;9.00;99.90;;;;;;5021094;28;20045;-92
2023/10/15 08:03:38;;;;;;;8.00;7.50;;;9.20;99.90;;;;;;5021454;28;20051;-95
2023/10/15 08:06:04;;;;;;;7.55;7.05;;;9.30;99.90;;;;;;5039220;28;20045;-95
2023/10/15 08:08:30;;;;;;;8.45;7.93;;;9.60;99.90;;;;;;5034126;28;20060;-92
2023/10/15 08:10:56;;;;;;;10.10;9.50;;;9.50;99.90;;;;;;5053523;28;20443;-92
2023/10/15 08:13:22;;;;;;;12.52;11.82;;;9.40;99.90;;;;;;5024473;28;20056;-91
2023/10/15 08:15:48;;;;;;;9.48;8.93;;;9.10;99.90;;;;;;5065186;28;20146;-92
2023/10/15 08:18:13;;;;;;;10.75;10.13;;;9.10;99.90;;;;;;5040321;28;20073;-89
2023/10/15 08:20:39;;;;;;;8.35;7.82;;;8.90;99.90;;;;;;5042782;28;20442;-86
2023/10/15 08:23:05;;;;;;;9.77;9.18;;;8.80;99.90;;;;;;5036367;28;20059;-93
2023/10/15 08:25:32;;;;;;;8.68;8.13;;;8.70;99.90;;;;;;5018671;28;20059;-90
2023/10/15 08:27:57;;;;;;;7.47;6.97;;;8.60;99.90;;;;;;5054707;28;20045;-91
2023/10/15 08:30:23;;;;;;;8.32;7.80;;;8.80;99.90;;;;;;5037259;28;20831;-92
2023/10/15 08:32:49;;;;;;;9.43;8.85;;;8.80;99.90;;;;;;5039040;28;20528;-90
2023/10/15 08:35:16;;;;;;;6.68;6.25;;;8.70;99.90;;;;;;5032591;28;20124;-88
2023/10/15 08:37:42;;;;;;;6.93;6.47;;;9.00;99.90;;;;;;5015571;28;20048;-92
2023/10/15 08:40:15;;;;;;;7.25;6.78;;;9.20;99.90;;;;;;5026183;28;20049;-91
2023/10/15 08:43:05;;;;;;;8.00;7.50;;;9.10;99.90;;;;;;5025921;28;20463;-90
2023/10/15 08:45:33;;;;;;;7.47;6.97;;;9.20;99.90;;;;;;5050273;28;20034;-88
2023/10/15 08:48:01;;;;;;;5.95;5.55;;;9.20;99.90;;;;;;5035387;28;20056;-91
2023/10/15 08:50:29;;;;;;;6.30;5.90;;;9.30;99.90;;;;;;5055873;28;20044;-92
2023/10/15 08:52:55;;;;;;;5.22;4.93;;;9.50;99.90;;;;;;5033909;28;20053;-92
2023/10/15 08:55:25;;;;;;;4.65;4.35;;;9.80;99.90;;;;;;5043619;28;20111;-95
2023/10/15 08:57:54;;;;;;;4.30;4.03;;;9.90;99.90;;;;;;5025033;28;20040;-91
2023/10/15 09:00:30;;;;;;;4.75;4.45;;;10.10;99.90;;;;;;5019608;28;20053;-89
2023/10/15 09:02:57;;;;;;;5.60;5.25;;;10.20;99.90;;;;;;5050946;28;20056;-94
2023/10/15 09:05:24;;;;;;;6.90;6.47;;;10.10;99.90;;;;;;5019652;28;20041;-89
2023/10/15 09:07:54;;;;;;;7.10;6.65;;;10.30;99.90;;;;;;5049938;28;20474;-94
2023/10/15 09:10:20;;;;;;;6.88;6.45;;;10.50;99.90;;;;;;5025072;28;20080;-91
2023/10/15 09:12:47;;;;;;;8.95;8.43;;;10.50;99.90;;;;;;5020299;28;20519;-91
2023/10/15 09:15:18;;;;;;;9.23;8.68;;;10.50;99.90;;;;;;5017779;28;20101;-92
2023/10/15 09:17:58;;;;;;;8.05;7.57;;;10.50;99.90;;;;;;5019704;28;20056;-90
2023/10/15 09:20:27;;;;;;;5.10;4.78;;;10.70;99.90;;;;;;5035094;28;20052;-89
2023/10/15 09:22:58;;;;;;;5.72;5.38;;;11.10;99.90;;;;;;5036735;28;20064;-90
2023/10/15 09:25:25;;;;;;;8.13;7.65;;;11.20;99.90;;;;;;5020153;28;20131;-87
2023/10/15 09:27:57;;;;;;;11.32;10.68;;;11.00;99.90;;;;;;5054612;28;20509;-90
2023/10/15 09:30:24;;;;;;;13.45;12.73;;;11.30;99.90;;;;;;5022325;28;20627;-90
2023/10/15 09:32:50;;;;;;;12.98;12.27;;;11.10;99.90;;;;;;5016218;28;20672;-90
2023/10/15 09:35:17;;;;;;;14.10;13.35;;;11.10;99.90;;;;;;5037117;28;20552;-93
2023/10/15 09:37:46;;;;;;;14.25;13.50;;;10.80;99.90;;;;;;5053277;28;20056;-93
2023/10/15 09:40:22;;;;;;;10.68;10.05;;;10.70;99.90;;;;;;5020417;28;20057;-90
2023/10/15 09:42:55;;;;;;;11.18;10.57;;;11.20;99.90;;;;;;5032142;28;20518;-86
2023/10/15 09:45:24;;;;;;;8.63;8.13;;;11.00;99.90;;;;;;5028718;28;20520;-87
2023/10/15 09:47:57;;;;;;;7.22;6.80;;;11.40;99.90;;;;;;5072732;28;20394;-90
2023/10/15 09:50:28;;;;;;;7.85;7.40;;;11.70;99.90;;;;;;5032710;28;20237;-89
2023/10/15 09:52:57;;;;;;;6.97;6.57;;;12.00;99.90;;;;;;5042937;28;20056;-88
2023/10/15 09:55:33;;;;;;;14.20;13.45;;;12.10;99.90;;;;;;5031513;28;20082;-91
2023/10/15 09:58:10;;;;;;;12.60;11.95;;;11.70;99.90;;;;;;5023779;28;20045;-85
2023/10/15 10:01:17;;;;;;;12.77;12.10;;;11.90;99.90;;;;;;5030356;28;20512;-92
2023/10/15 10:03:48;;;;;;;10.65;10.07;;;12.30;99.90;;;;;;5008540;28;20440;-91
2023/10/15 10:06:17;;;;;;;13.80;13.10;;;12.20;99.90;;;;;;5042004;28;20048;-88
2023/10/15 10:09:01;;;;;;;14.90;14.15;;;12.30;99.90;;;;;;5029070;28;20055;-86
2023/10/15 10:11:51;;;;;;;12.68;12.00;;;12.40;99.90;;;;;;5021178;28;20112;-87
2023/10/15 10:14:54;;;;;;;13.23;12.52;;;12.50;99.90;;;;;;5025106;28;20383;-86
2023/10/15 10:17:21;;;;;;;18.20;17.27;;;12.50;99.90;;;;;;5030658;28;20138;-89
2023/10/15 10:19:52;;;;;;;8.63;8.07;;;12.40;99.90;;;;;;5015119;28;20482;-87
2023/10/15 10:22:28;;;;;;;9.25;8.65;;;12.30;99.90;;;;;;5018842;28;20107;-90
2023/10/15 10:24:58;;;;;;;10.40;9.80;;;12.80;99.90;;;;;;5030699;28;20056;-86
2023/10/15 10:27:24;;;;;;;11.88;11.18;;;12.30;99.90;;;;;;5035470;28;20044;-89
2023/10/15 10:30:15;;;;;;;8.15;7.65;;;12.60;99.90;;;;;;5017245;28;20403;-88
2023/10/15 10:32:41;;;;;;;9.65;9.05;;;13.00;99.90;;;;;;5029151;28;20091;-85
2023/10/15 10:35:23;;;;;;;10.30;9.68;;;13.10;99.90;;;;;;5031727;28;20772;-83
2023/10/15 10:38:06;;;;;;;11.07;10.43;;;13.30;99.90;;;;;;5033596;28;20099;-85
2023/10/15 10:40:51;;;;;;;12.98;12.25;;;13.70;99.90;;;;;;5025715;28;20536;-86
2023/10/15 10:43:23;;;;;;;13.15;12.40;;;13.50;99.90;;;;;;5034343;28;20430;-84
2023/10/15 10:45:57;;;;;;;13.23;12.48;;;13.30;99.90;;;;;;5033630;28;20045;-90
2023/10/15 10:48:24;;;;;;;;;;;13.20;99.90;;;;;;5020942;28;20561;-87
2023/10/15 10:51:15;;;;;;;13.95;13.18;;;13.50;99.90;;;;;;5033256;28;19921;-92
2023/10/15 10:53:56;;;;;;;11.90;11.23;;;13.30;99.90;;;;;;5034237;28;20119;-86
2023/10/15 10:56:42;;;;;;;12.52;11.80;;;13.10;99.90;;;;;;5021080;28;20133;-89
2023/10/15 10:59:12;;;;;;;11.18;10.52;;;13.00;99.90;;;;;;5020755;28;20094;-91
2023/10/15 11:01:45;;;;;;;10.73;10.10;;;13.00;99.90;;;;;;5035584;28;20045;-89
2023/10/15 11:04:15;;;;;;;10.20;9.60;;;12.80;99.90;;;;;;5036578;28;20632;-94
2023/10/15 11:06:51;;;;;;;9.57;8.98;;;12.30;99.90;;;;;;5021873;28;20072;-94
2023/10/15 11:09:23;;;;;;;9.35;8.77;;;11.80;99.90;;;;;;5019519;28;20046;-93
2023/10/15 11:11:52;;;;;;;8.00;7.50;;;11.50;99.90;;;;;;5037008;28;20128;-91
2023/10/15 11:14:23;;;;;;;7.72;7.22;;;11.50;99.90;;;;;;5052564;28;20100;-87
2023/10/15 11:16:53;;;;;;;7.03;6.55;;;11.50;99.90;;;;;;5033653;28;20160;-88
2023/10/15 11:19:30;;;;;;;5.70;5.30;;;11.70;99.90;;;;;;5017445;28;20056;-87
2023/10/15 11:21:56;;;;;;;5.85;5.45;;;12.10;99.90;;;;;;5030404;28;20495;-89
2023/10/15 11:24:24;;;;;;;6.75;6.30;;;12.30;99.90;;;;;;5038977;28;20037;-87
2023/10/15 11:26:50;;;;;;;6.15;5.75;;;12.40;99.90;;;;;;5045984;28;20116;-87
2023/10/15 11:29:18;;;;;;;5.57;5.20;;;12.70;99.90;;;;;;5032822;28;20139;-88
2023/10/15 11:31:46;;;;;;;6.72;6.30;;;12.90;99.90;;;;;;5023749;28;20040;-87
2023/10/15 11:34:19;;;;;;;7.65;7.20;;;12.90;99.90;;;;;;5032181;28;20048;-88
2023/10/15 11:36:48;;;;;;;6.68;6.25;;;13.00;99.90;;;;;;5040099;28;20110;-86
2023/10/15 11:39:18;;;;;;;7.82;7.38;;;13.10;99.90;;;;;;5066078;28;20121;-92
2023/10/15 11:41:52;;;;;;;7.57;7.13;;;13.30;99.90;;;;;;5033119;28;20106;-85
2023/10/15 11:45:16;;;;;;;9.50;8.95;;;13.50;99.90;;;;;;5028297;28;20063;-88
2023/10/15 11:47:08;;;;;;;7.32;6.90;;;13.50;99.90;;;;;;5025628;28;20045;-87
2023/10/15 11:49:35;;;;;;;8.10;7.65;;;13.70;99.90;;;;;;5033071;28;20044;-87
2023/10/15 11:52:05;;;;;;;7.85;7.40;;;13.80;99.90;;;;;;5036047;28;20138;-87
2023/10/15 11:54:32;;;;;;;9.05;8.55;;;14.00;99.90;;;;;;5034194;28;20045;-92
2023/10/15 11:57:04;;;;;;;10.57;10.00;;;14.00;99.90;;;;;;5031629;28;20048;-90
2023/10/15 11:59:31;;;;;;;9.85;9.30;;;13.90;99.90;;;;;;5036348;28;20110;-88
2023/10/15 12:02:01;;;;;;;9.23;8.73;;;14.20;99.90;;;;;;5034818;28;20055;-88
2023/10/15 12:04:28;;;;;;;11.27;10.68;;;14.20;99.90;;;;;;5015780;28;20131;-89
2023/10/15 12:06:53;;;;;;;10.68;10.07;;;14.30;99.90;;;;;;5030532;28;20576;-88
2023/10/15 12:09:24;;;;;;;11.40;10.77;;;14.10;99.90;;;;;;5038762;28;20135;-89
2023/10/15 12:11:53;;;;;;;12.82;12.13;;;14.00;99.90;;;;;;5036993;28;20045;-92
2023/10/15 12:14:19;;;;;;;10.02;9.48;;;14.20;99.90;;;;;;5037687;28;20071;-91
2023/10/15 12:16:45;;;;;;;9.85;9.30;;;14.20;99.90;;;;;;5020104;28;20069;-91
2023/10/15 12:19:11;;;;;;;10.85;10.25;;;14.30;99.90;;;;;;5021018;28;20103;-89
2023/10/15 12:21:38;;;;;;;11.80;11.15;;;14.40;99.90;;;;;;5051601;28;20052;-86
2023/10/15 12:24:11;;;;;;;10.30;9.70;;;14.10;99.90;;;;;;5024841;28;20048;-86
2023/10/15 12:26:37;;;;;;;9.95;9.38;;;14.40;99.90;;;;;;5046160;28;20069;-88
2023/10/15 12:29:03;;;;;;;9.05;8.52;;;14.30;99.90;;;;;;5029917;28;20088;-86
2023/10/15 12:31:30;;;;;;;10.52;9.93;;;14.40;99.90;;;;;;5038587;28;20102;-88
2023/10/15 12:33:56;;;;;;;10.88;10.27;;;14.30;99.90;;;;;;5023993;28;20056;-92
2023/10/15 12:36:22;;;;;;;9.93;9.35;;;14.50;99.90;;;;;;5037181;28;20040;-86
2023/10/15 12:38:48;;;;;;;11.55;10.93;;;14.40;99.90;;;;;;5042243;28;20102;-91
2023/10/15 12:41:15;;;;;;;9.18;8.63;;;14.50;99.90;;;;;;5020984;28;20105;-90
2023/10/15 12:43:40;;;;;;;9.40;8.85;;;14.30;99.90;;;;;;5038601;28;20049;-88
2023/10/15 12:46:07;;;;;;;11.65;11.00;;;14.50;99.90;;;;;;5051767;28;20049;-87
2023/10/15 12:48:33;;;;;;;12.45;11.75;;;14.40;99.90;;;;;;5041063;28;20123;-90
2023/10/15 12:50:59;;;;;;;12.15;11.48;;;14.10;99.90;;;;;;5037446;28;20851;-86
2023/10/15 12:53:25;;;;;;;11.70;11.05;;;14.10;99.90;;;;;;5033094;28;20045;-87
2023/10/15 12:55:51;;;;;;;10.23;9.63;;;14.20;99.90;;;;;;5033462;28;20044;-86
2023/10/15 12:58:17;;;;;;;8.50;8.00;;;14.40;99.90;;;;;;5037524;28;20068;-86
2023/10/15 13:00:48;;;;;;;4.80;4.53;;;14.60;99.90;;;;;;5036117;28;20498;-93
2023/10/15 13:03:17;;;;;;;5.35;5.03;;;15.00;99.90;;;;;;5029702;28;20040;-88
2023/10/15 13:05:43;;;;;;;7.30;6.88;;;15.10;99.90;;;;;;5018794;28;20647;-87
2023/10/15 13:08:09;;;;;;;8.07;7.57;;;15.00;99.90;;;;;;5038643;28;20049;-85
2023/10/15 13:10:35;;;;;;;8.70;8.18;;;14.90;99.90;;;;;;5038233;28;20044;-90
2023/10/15 13:13:01;;;;;;;8.13;7.63;;;15.20;99.90;;;;;;5040102;28;20049;-86
2023/10/15 13:15:30;;;;;;;9.40;8.82;;;15.20;99.90;;;;;;5057139;28;20160;-90